createdAt,value
2022-12-23T00:01:43.856Z,87.59
2022-12-23T00:04:10.935Z,88.01
2022-12-23T00:06:38.025Z,87.41
2022-12-23T00:09:05.015Z,87.02
2022-12-23T00:11:32.124Z,86.95
2022-12-23T00:14:21.449Z,86.69
2022-12-23T00:16:51.106Z,86.02
2022-12-23T00:19:18.503Z,86.96
2022-12-23T00:21:45.765Z,86.25
2022-12-23T00:24:12.850Z,86.99
2022-12-23T00:26:39.834Z,86.60
2022-12-23T00:29:07.261Z,86.74
2022-12-23T00:31:34.319Z,86.26
2022-12-23T00:34:01.311Z,87.32
2022-12-23T00:36:30.947Z,87.25
2022-12-23T00:39:18.301Z,87.70
2022-12-23T00:42:04.172Z,87.16
2022-12-23T00:44:31.751Z,86.27
2022-12-23T00:46:58.856Z,86.79
2022-12-23T00:49:44.212Z,86.90
2022-12-23T00:52:15.718Z,86.93
2022-12-23T00:54:43.136Z,86.30
2022-12-23T00:57:10.378Z,86.33
2022-12-23T00:59:37.399Z,86.49
2022-12-23T01:02:23.410Z,86.42
2022-12-23T01:05:09.218Z,87.34
2022-12-23T01:07:36.334Z,87.38
2022-12-23T01:10:04.266Z,87.33
2022-12-23T01:12:31.379Z,87.71
2022-12-23T01:14:58.384Z,87.71
2022-12-23T01:17:25.503Z,88.84
2022-12-23T01:19:52.548Z,89.45
2022-12-23T01:22:19.601Z,89.02
2022-12-23T01:24:46.671Z,87.93
2022-12-23T01:27:32.688Z,88.80
2022-12-23T01:29:59.699Z,89.18
2022-12-23T01:32:26.710Z,89.87
2022-12-23T01:34:53.817Z,90.81
2022-12-23T01:37:20.853Z,91.89
2022-12-23T01:39:48.065Z,90.73
2022-12-23T01:42:35.540Z,90.18
2022-12-23T01:45:16.329Z,88.70
2022-12-23T01:47:46.356Z,90.95
2022-12-23T01:50:21.916Z,90.30
2022-12-23T01:53:12.034Z,90.32
2022-12-23T01:56:00.306Z,90.44
2022-12-23T01:58:37.387Z,91.24
2022-12-23T02:01:24.109Z,93.32
2022-12-23T02:03:55.922Z,91.22
2022-12-23T02:06:56.975Z,94.38
2022-12-23T02:09:30.706Z,95.31
2022-12-23T02:12:17.506Z,93.81
2022-12-23T02:15:24.871Z,92.61
2022-12-23T02:18:29.185Z,92.12
2022-12-23T02:21:20.789Z,91.85
2022-12-23T02:24:02.876Z,91.15
2022-12-23T02:26:44.769Z,90.08
2022-12-23T02:29:33.447Z,91.85
2022-12-23T02:32:06.044Z,92.97
2022-12-23T02:34:44.950Z,93.99
2022-12-23T02:37:36.692Z,93.46
2022-12-23T02:40:20.077Z,91.40
2022-12-23T02:43:02.171Z,91.49
2022-12-23T02:46:01.678Z,92.26
2022-12-23T02:48:44.175Z,91.33
2022-12-23T02:51:14.550Z,90.04
2022-12-23T02:53:52.688Z,91.76
2022-12-23T02:56:22.239Z,91.25
2022-12-23T02:59:10.614Z,91.62
2022-12-23T03:01:39.117Z,90.03
2022-12-23T03:04:06.895Z,90.54
2022-12-23T03:06:39.922Z,90.53
2022-12-23T03:09:07.415Z,90.52
2022-12-23T03:11:43.187Z,88.85
2022-12-23T03:14:31.077Z,91.88
2022-12-23T03:17:10.528Z,91.74
2022-12-23T03:19:53.755Z,89.96
2022-12-23T03:22:36.274Z,90.66
2022-12-23T03:25:12.742Z,89.86
2022-12-23T03:27:45.080Z,90.59
2022-12-23T03:30:15.634Z,90.23
2022-12-23T03:32:54.277Z,89.45
2022-12-23T03:35:29.908Z,92.17
2022-12-23T03:37:59.844Z,92.41
2022-12-23T03:40:31.430Z,93.09
2022-12-23T03:43:04.170Z,91.94
2022-12-23T03:45:40.349Z,90.88
2022-12-23T03:48:17.088Z,91.30
2022-12-23T03:50:46.494Z,90.08
2022-12-23T03:53:33.552Z,90.78
2022-12-23T03:56:06.753Z,90.31
2022-12-23T03:58:53.044Z,88.42
2022-12-23T04:01:41.361Z,89.42
2022-12-23T04:04:23.665Z,89.85
2022-12-23T04:07:09.084Z,91.10
2022-12-23T04:09:37.225Z,92.20
2022-12-23T04:12:04.627Z,92.37
2022-12-23T04:14:34.420Z,90.74
2022-12-23T04:17:02.052Z,90.20
2022-12-23T04:19:29.301Z,90.15
2022-12-23T04:21:57.598Z,90.27
2022-12-23T04:24:24.577Z,91.28
2022-12-23T04:26:51.591Z,92.64
2022-12-23T04:29:19.310Z,92.05
2022-12-23T04:31:46.410Z,91.77
2022-12-23T04:34:13.732Z,91.90
2022-12-23T04:36:40.724Z,92.07
2022-12-23T04:39:07.780Z,94.97
2022-12-23T04:41:34.775Z,94.01
2022-12-23T04:44:01.774Z,92.39
2022-12-23T04:46:28.785Z,92.91
2022-12-23T04:48:55.842Z,93.02
2022-12-23T04:51:23.369Z,92.36
2022-12-23T04:53:50.522Z,92.72
2022-12-23T04:56:57.381Z,91.56
2022-12-23T05:01:03.082Z,89.76
2022-12-23T05:07:33.313Z,88.60
2022-12-23T05:10:03.259Z,88.43
2022-12-23T05:12:57.637Z,90.50
2022-12-23T05:15:36.502Z,90.89
2022-12-23T05:18:06.356Z,91.04
2022-12-23T05:21:19.616Z,90.27
2022-12-23T05:23:55.304Z,89.54
2022-12-23T05:26:25.553Z,90.13
2022-12-23T05:29:13.587Z,88.83
2022-12-23T05:31:52.689Z,89.33
2022-12-23T05:34:34.690Z,89.20
2022-12-23T05:37:04.544Z,88.25
2022-12-23T05:39:31.562Z,88.30
2022-12-23T05:41:58.572Z,87.01
2022-12-23T05:44:25.583Z,87.31
2022-12-23T05:46:52.610Z,87.10
2022-12-23T05:49:19.607Z,86.99
2022-12-23T05:51:46.694Z,86.71
2022-12-23T05:54:13.760Z,85.53
2022-12-23T05:56:41.072Z,87.19
2022-12-23T05:59:08.141Z,87.92
2022-12-23T06:01:35.218Z,87.72
2022-12-23T06:04:02.399Z,87.21
2022-12-23T06:06:29.574Z,87.27
2022-12-23T06:08:59.753Z,86.47
2022-12-23T06:11:27.712Z,86.78
2022-12-23T06:13:54.769Z,87.34
2022-12-23T06:16:21.898Z,86.94
2022-12-23T06:18:48.969Z,86.29
2022-12-23T06:21:15.971Z,86.45
2022-12-23T06:23:43.029Z,87.00
2022-12-23T06:26:10.010Z,86.12
2022-12-23T06:28:37.020Z,84.76
2022-12-23T06:31:04.265Z,86.53
2022-12-23T06:33:31.280Z,86.62
2022-12-23T06:35:58.466Z,86.70
2022-12-23T06:38:25.593Z,87.07
2022-12-23T06:40:52.633Z,87.32
2022-12-23T06:43:19.754Z,86.65
2022-12-23T06:46:51.497Z,85.94
2022-12-23T06:49:37.107Z,86.10
2022-12-23T06:52:04.381Z,85.96
2022-12-23T06:54:46.087Z,86.80
2022-12-23T06:57:15.914Z,86.58
2022-12-23T06:59:45.775Z,86.83
2022-12-23T07:02:21.367Z,86.76
2022-12-23T07:05:08.865Z,86.57
2022-12-23T07:07:41.824Z,86.17
2022-12-23T07:10:09.590Z,86.71
2022-12-23T07:12:37.023Z,84.98
2022-12-23T07:15:05.599Z,85.72
2022-12-23T07:17:41.843Z,85.65
2022-12-23T07:20:11.813Z,86.91
2022-12-23T07:22:42.166Z,86.63
2022-12-23T07:25:14.401Z,86.45
2022-12-23T07:27:49.707Z,86.03
2022-12-23T07:30:19.784Z,85.75
2022-12-23T07:32:55.947Z,87.93
2022-12-23T07:35:23.199Z,88.46
2022-12-23T07:37:55.576Z,86.97
2022-12-23T07:40:24.095Z,86.59
2022-12-23T07:42:55.151Z,85.96
2022-12-23T07:45:22.204Z,85.53
2022-12-23T07:52:26.523Z,89.65
2022-12-23T07:54:53.497Z,87.95
2022-12-23T07:57:20.549Z,86.66
2022-12-23T07:59:47.603Z,86.29
2022-12-23T08:02:14.838Z,86.02
2022-12-23T08:04:45.979Z,86.23
2022-12-23T08:07:13.596Z,86.06
2022-12-23T08:09:40.594Z,86.47
2022-12-23T08:12:07.808Z,85.76
2022-12-23T08:14:34.884Z,84.96
2022-12-23T08:17:02.115Z,87.37
2022-12-23T08:19:29.406Z,87.41
2022-12-23T08:21:56.432Z,87.44
2022-12-23T08:24:23.492Z,88.24
2022-12-23T08:26:50.462Z,89.03
2022-12-23T08:29:17.590Z,86.93
2022-12-23T08:32:06.372Z,89.39
2022-12-23T08:34:48.091Z,89.92
2022-12-23T08:37:15.201Z,89.81
2022-12-23T08:39:43.795Z,89.49
2022-12-23T08:42:10.861Z,88.50
2022-12-23T08:44:37.898Z,88.91
2022-12-23T08:47:16.884Z,90.08
2022-12-23T08:49:49.813Z,89.02
2022-12-23T08:52:16.818Z,89.13
2022-12-23T08:54:43.937Z,88.67
2022-12-23T08:57:10.967Z,87.80
2022-12-23T08:59:37.965Z,85.25
2022-12-23T09:02:05.231Z,86.51
2022-12-23T09:04:32.715Z,85.37
2022-12-23T09:06:59.756Z,86.43
2022-12-23T09:09:26.918Z,87.68
2022-12-23T09:11:53.954Z,86.08
2022-12-23T09:14:21.010Z,87.78
2022-12-23T09:16:51.905Z,87.38
2022-12-23T09:19:19.006Z,86.98
2022-12-23T09:21:46.045Z,87.70
2022-12-23T09:24:13.088Z,87.78
2022-12-23T09:26:40.194Z,87.08
2022-12-23T09:29:07.280Z,86.28
2022-12-23T09:31:37.439Z,88.88
2022-12-23T09:34:06.259Z,89.59
2022-12-23T09:36:33.789Z,88.71
2022-12-23T09:39:00.834Z,87.12
2022-12-23T09:41:27.776Z,87.02
2022-12-23T09:44:16.197Z,86.88
2022-12-23T09:46:49.667Z,86.46
2022-12-23T09:49:18.840Z,85.83
2022-12-23T09:51:49.234Z,85.92
2022-12-23T09:54:25.067Z,86.25
2022-12-23T09:57:05.123Z,86.05
2022-12-23T10:00:09.462Z,85.89
2022-12-23T10:02:51.584Z,87.59
2022-12-23T10:05:48.384Z,86.45
2022-12-23T10:08:32.998Z,86.96
2022-12-23T10:11:05.957Z,87.02
2022-12-23T10:13:42.259Z,86.84
2022-12-23T10:16:35.669Z,86.75
2022-12-23T10:19:16.495Z,88.82
2022-12-23T10:21:48.264Z,88.68
2022-12-23T10:24:26.755Z,89.68
2022-12-23T10:27:03.800Z,89.80
2022-12-23T10:29:32.914Z,89.47
2022-12-23T10:32:38.112Z,90.13
2022-12-23T10:35:08.188Z,90.42
2022-12-23T10:37:44.493Z,88.59
2022-12-23T10:40:33.307Z,88.90
2022-12-23T10:43:18.808Z,88.97
2022-12-23T10:46:29.853Z,88.88
2022-12-23T10:49:22.663Z,88.35
2022-12-23T10:51:57.702Z,89.28
2022-12-23T10:54:31.076Z,90.02
2022-12-23T10:56:58.808Z,88.96
2022-12-23T10:59:28.648Z,87.46
2022-12-23T11:02:26.084Z,88.71
2022-12-23T11:04:53.269Z,87.51
2022-12-23T11:07:45.644Z,86.84
2022-12-23T11:10:18.409Z,88.47
2022-12-23T11:12:51.710Z,90.24
2022-12-23T11:15:40.741Z,89.39
2022-12-23T11:18:14.536Z,89.60
2022-12-23T11:20:44.063Z,88.46
2022-12-23T11:23:26.089Z,87.79
2022-12-23T11:26:20.417Z,87.42
2022-12-23T11:29:07.762Z,87.11
2022-12-23T11:31:35.723Z,87.49
2022-12-23T11:34:23.917Z,87.04
2022-12-23T11:37:05.488Z,86.79
2022-12-23T11:39:37.204Z,87.75
2022-12-23T11:42:17.601Z,87.88
2022-12-23T11:44:46.331Z,87.92
2022-12-23T11:47:24.768Z,88.31
2022-12-23T11:50:06.549Z,90.36
2022-12-23T11:52:34.153Z,89.88
2022-12-23T11:55:04.104Z,89.54
2022-12-23T11:57:42.846Z,89.54
2022-12-23T12:00:21.189Z,88.98
2022-12-23T12:02:53.118Z,87.74
2022-12-23T12:05:31.054Z,89.29
2022-12-23T12:08:05.998Z,91.43
2022-12-23T12:10:37.480Z,90.56
2022-12-23T12:13:26.217Z,89.78
2022-12-23T12:16:08.744Z,91.09
2022-12-23T12:18:37.238Z,90.15
2022-12-23T12:21:07.543Z,89.91
2022-12-23T12:23:43.968Z,88.63
2022-12-23T12:26:32.954Z,88.64
2022-12-23T12:29:18.707Z,87.82
2022-12-23T12:31:55.540Z,88.45
2022-12-23T12:34:34.112Z,89.10
2022-12-23T12:37:28.257Z,91.37
2022-12-23T12:40:01.353Z,91.80
2022-12-23T12:42:44.520Z,91.52
2022-12-23T12:45:22.995Z,90.68
2022-12-23T12:48:28.107Z,91.50
2022-12-23T12:51:19.421Z,91.75
2022-12-23T12:54:04.706Z,93.14
2022-12-23T12:56:44.233Z,95.78
2022-12-23T12:59:21.273Z,94.07
2022-12-23T13:02:17.108Z,94.75
2022-12-23T13:05:00.454Z,93.36
2022-12-23T13:07:39.297Z,92.09
2022-12-23T13:10:24.663Z,90.08
2022-12-23T13:13:16.097Z,89.89
2022-12-23T13:15:43.138Z,89.44
2022-12-23T13:18:43.745Z,92.49
2022-12-23T13:21:16.188Z,93.54
2022-12-23T13:24:01.933Z,92.20
2022-12-23T13:26:42.906Z,92.48
2022-12-23T13:29:43.909Z,91.28
2022-12-23T13:32:22.080Z,90.46
2022-12-23T13:35:16.482Z,89.45
2022-12-23T13:38:10.482Z,88.41
2022-12-23T13:41:14.610Z,87.42
2022-12-23T13:43:53.803Z,89.15
2022-12-23T13:46:57.986Z,89.25
2022-12-23T13:49:37.219Z,89.24
2022-12-23T13:52:24.512Z,92.75
2022-12-23T13:55:29.077Z,91.49
2022-12-23T13:58:03.888Z,91.45
2022-12-23T14:00:35.179Z,90.89
2022-12-23T14:03:02.276Z,89.76
2022-12-23T14:05:41.481Z,89.95
2022-12-23T14:08:40.161Z,90.73
2022-12-23T14:11:39.447Z,88.86
2022-12-23T14:14:17.395Z,89.08
2022-12-23T14:16:53.283Z,88.68
2022-12-23T14:19:44.621Z,87.88
2022-12-23T14:22:33.267Z,88.32
2022-12-23T14:25:09.174Z,86.62
2022-12-23T14:27:56.984Z,89.30
2022-12-23T14:30:26.595Z,89.42
2022-12-23T14:32:58.832Z,89.50
2022-12-23T14:35:49.214Z,90.85
2022-12-23T14:38:16.185Z,91.65
2022-12-23T14:40:43.158Z,90.59
2022-12-23T14:43:46.992Z,92.17
2022-12-23T14:46:35.547Z,91.94
2022-12-23T14:49:38.397Z,90.99
2022-12-23T14:51:52.808Z,92.60
2022-12-23T14:54:38.435Z,91.66
2022-12-23T14:57:16.849Z,92.34
2022-12-23T15:00:16.611Z,93.17
2022-12-23T15:02:44.306Z,92.40
2022-12-23T15:05:12.865Z,91.23
2022-12-23T15:07:44.537Z,91.58
2022-12-23T15:10:26.083Z,90.72
2022-12-23T15:12:57.254Z,90.48
2022-12-23T15:15:29.984Z,90.75
2022-12-23T15:18:04.097Z,91.32
2022-12-23T15:20:31.746Z,91.55
2022-12-23T15:23:07.965Z,91.86
2022-12-23T15:25:39.428Z,94.77
2022-12-23T15:28:15.228Z,94.39
2022-12-23T15:30:49.560Z,93.63
2022-12-23T15:34:00.570Z,92.49
2022-12-23T15:36:10.614Z,93.85
2022-12-23T15:38:39.216Z,94.32
2022-12-23T15:41:18.653Z,92.32
2022-12-23T15:43:46.077Z,91.80
2022-12-23T15:46:29.731Z,91.44
2022-12-23T15:48:58.479Z,92.21
2022-12-23T15:52:05.241Z,91.91
2022-12-23T15:54:26.505Z,92.63
2022-12-23T15:56:54.790Z,93.31
2022-12-23T15:59:34.351Z,91.81
2022-12-23T16:02:32.494Z,92.59
2022-12-23T16:05:03.080Z,94.67
2022-12-23T16:07:40.082Z,95.06
2022-12-23T16:10:20.999Z,95.04
2022-12-23T16:12:51.941Z,93.93
2022-12-23T16:15:21.538Z,94.06
2022-12-23T16:17:48.674Z,95.92
2022-12-23T16:20:27.045Z,94.60
2022-12-23T16:22:58.660Z,95.78
2022-12-23T16:25:33.542Z,95.83
2022-12-23T16:28:11.497Z,94.25
2022-12-23T16:30:42.881Z,94.84
2022-12-23T16:33:36.662Z,95.83
2022-12-23T16:36:18.521Z,95.38
2022-12-23T16:38:46.359Z,95.40
2022-12-23T16:41:13.712Z,95.50
2022-12-23T16:43:47.513Z,93.90
2022-12-23T16:46:21.169Z,93.75
2022-12-23T16:48:59.923Z,94.99
2022-12-23T16:51:29.029Z,94.78
2022-12-23T16:53:57.651Z,94.15
2022-12-23T16:56:28.384Z,95.39
2022-12-23T16:58:55.381Z,95.12
2022-12-23T17:01:24.055Z,95.66
2022-12-23T17:03:51.951Z,95.38
2022-12-23T17:06:19.822Z,96.56
2022-12-23T17:08:46.982Z,95.77
2022-12-23T17:11:38.197Z,97.13
2022-12-23T17:14:09.246Z,96.88
2022-12-23T17:16:40.636Z,97.24
2022-12-23T17:19:07.721Z,96.68
2022-12-23T17:21:37.319Z,95.50
2022-12-23T17:24:19.894Z,97.35
2022-12-23T17:26:46.919Z,98.69
2022-12-23T17:29:15.219Z,97.26
2022-12-23T17:31:43.865Z,97.64
2022-12-23T17:34:17.636Z,98.45
2022-12-23T17:36:49.915Z,97.74
2022-12-23T17:39:17.518Z,99.07
2022-12-23T17:41:44.647Z,99.23
2022-12-23T17:44:14.802Z,100.00
2022-12-23T17:46:41.960Z,100.00
2022-12-23T17:49:09.280Z,99.91
2022-12-23T17:51:36.612Z,99.58
2022-12-23T17:54:04.890Z,100.00
2022-12-23T17:56:32.525Z,100.00
2022-12-23T17:58:59.548Z,100.00
2022-12-23T18:01:29.980Z,100.00
2022-12-23T18:03:58.624Z,100.00
2022-12-23T18:06:27.898Z,100.00
2022-12-23T18:08:57.127Z,100.00
2022-12-23T18:11:30.044Z,100.00
2022-12-23T18:13:57.282Z,100.00
2022-12-23T18:16:24.382Z,100.00
2022-12-23T18:18:51.988Z,100.00
2022-12-23T18:21:28.536Z,100.00
2022-12-23T18:23:58.646Z,100.00
2022-12-23T18:26:26.289Z,100.00
2022-12-23T18:28:54.471Z,100.00
2022-12-23T18:31:27.272Z,100.00
2022-12-23T18:33:54.833Z,100.00
2022-12-23T18:36:28.095Z,100.00
2022-12-23T18:38:55.425Z,100.00
2022-12-23T18:41:23.524Z,100.00
2022-12-23T18:43:51.659Z,100.00
2022-12-23T18:46:20.275Z,100.00
2022-12-23T18:48:47.958Z,100.00
2022-12-23T18:51:17.365Z,100.00
2022-12-23T18:53:45.183Z,99.41
2022-12-23T18:56:16.746Z,98.11
2022-12-23T18:58:43.878Z,98.36
2022-12-23T19:01:12.882Z,97.93
2022-12-23T19:03:40.270Z,97.01
2022-12-23T19:06:09.652Z,98.40
2022-12-23T19:08:38.308Z,99.64
2022-12-23T19:11:20.542Z,100.00
2022-12-23T19:13:47.798Z,100.00
2022-12-23T19:16:17.439Z,100.00
2022-12-23T19:18:45.743Z,100.00
2022-12-23T19:21:13.010Z,100.00
2022-12-23T19:23:41.269Z,99.68
2022-12-23T19:26:13.822Z,100.00
2022-12-23T19:28:41.979Z,99.53
2022-12-23T19:31:14.376Z,99.13
2022-12-23T19:33:45.769Z,99.73
2022-12-23T19:36:19.652Z,100.00
2022-12-23T19:38:46.794Z,100.00
2022-12-23T19:41:13.928Z,100.00
2022-12-23T19:43:43.920Z,100.00
2022-12-23T19:46:12.057Z,99.99
2022-12-23T19:48:39.120Z,100.00
2022-12-23T19:51:09.334Z,100.00
2022-12-23T19:53:36.500Z,99.27
2022-12-23T19:56:07.841Z,98.13
2022-12-23T19:58:39.018Z,97.26
2022-12-23T20:01:06.227Z,97.65
2022-12-23T20:03:33.558Z,99.95
2022-12-23T20:06:00.806Z,100.00
2022-12-23T20:08:27.947Z,99.78
2022-12-23T20:11:09.277Z,98.13
2022-12-23T20:13:37.149Z,100.00
2022-12-23T20:16:05.447Z,100.00
2022-12-23T20:18:32.980Z,100.00
2022-12-23T20:21:01.230Z,100.00
2022-12-23T20:23:29.058Z,100.00
2022-12-23T20:25:56.494Z,98.53
2022-12-23T20:28:23.782Z,97.71
2022-12-23T20:31:09.350Z,99.47
2022-12-23T20:33:38.279Z,98.93
2022-12-23T20:36:10.605Z,98.39
2022-12-23T20:38:39.155Z,98.07
2022-12-23T20:41:10.660Z,98.33
2022-12-23T20:43:37.796Z,97.59
2022-12-23T20:46:06.907Z,98.03
2022-12-23T20:48:35.129Z,98.15
2022-12-23T20:51:06.932Z,97.16
2022-12-23T20:53:34.492Z,95.95
2022-12-23T20:56:04.718Z,96.09
2022-12-23T20:58:50.884Z,96.69
2022-12-23T21:01:18.121Z,95.66
2022-12-23T21:03:45.405Z,96.71
2022-12-23T21:06:12.497Z,98.88
2022-12-23T21:08:40.254Z,100.00
2022-12-23T21:11:07.735Z,98.33
2022-12-23T21:13:37.027Z,97.71
2022-12-23T21:16:06.517Z,97.72
2022-12-23T21:18:33.793Z,97.85
2022-12-23T21:21:02.534Z,97.12
2022-12-23T21:23:30.018Z,96.54
2022-12-23T21:26:20.152Z,98.36
2022-12-23T21:28:48.709Z,96.83
2022-12-23T21:31:18.668Z,95.57
2022-12-23T21:33:47.423Z,96.03
2022-12-23T21:36:20.271Z,96.64
2022-12-23T21:38:49.251Z,96.68
2022-12-23T21:41:19.746Z,96.19
2022-12-23T21:43:47.252Z,95.75
2022-12-23T21:46:16.593Z,95.47
2022-12-23T21:48:44.563Z,97.29
2022-12-23T21:51:22.110Z,95.75
2022-12-23T21:53:52.990Z,96.24
2022-12-23T21:56:24.359Z,95.50
2022-12-23T21:58:56.719Z,94.93
2022-12-23T22:01:24.826Z,92.81
2022-12-23T22:03:53.342Z,94.51
2022-12-23T22:06:22.751Z,95.63
2022-12-23T22:08:51.695Z,96.65
2022-12-23T22:11:25.693Z,96.67
2022-12-23T22:13:53.357Z,97.40
2022-12-23T22:16:23.391Z,98.07
2022-12-23T22:18:51.736Z,100.00
2022-12-23T22:21:21.549Z,99.55
2022-12-23T22:23:49.772Z,98.81
2022-12-23T22:26:24.616Z,96.55
2022-12-23T22:28:54.335Z,97.03
2022-12-23T22:31:24.076Z,96.22
2022-12-23T22:33:51.165Z,97.11
2022-12-23T22:36:18.281Z,97.92
2022-12-23T22:38:52.656Z,97.86
2022-12-23T22:41:19.855Z,97.77
2022-12-23T22:43:46.959Z,98.33
2022-12-23T22:46:15.050Z,98.70
2022-12-23T22:48:42.285Z,98.04
2022-12-23T22:51:15.641Z,97.55
2022-12-23T22:53:43.151Z,95.42
2022-12-23T22:56:12.934Z,96.20
2022-12-23T22:58:40.186Z,96.29
2022-12-23T23:01:16.579Z,96.96
2022-12-23T23:03:43.704Z,96.22
2022-12-23T23:06:11.588Z,93.15
2022-12-23T23:08:38.618Z,93.39
2022-12-23T23:11:05.858Z,92.49
2022-12-23T23:13:34.874Z,93.34
2022-12-23T23:16:03.167Z,94.65
2022-12-23T23:18:30.929Z,93.09
2022-12-23T23:20:58.129Z,92.34
2022-12-23T23:23:25.349Z,90.82
2022-12-23T23:25:52.536Z,91.24
2022-12-23T23:28:19.618Z,90.34
2022-12-23T23:30:46.936Z,88.50
2022-12-23T23:33:14.024Z,90.11
2022-12-23T23:35:41.079Z,89.13
2022-12-23T23:38:09.176Z,90.13
2022-12-23T23:40:36.432Z,90.64
2022-12-23T23:43:04.087Z,91.26
2022-12-23T23:45:31.407Z,93.13
2022-12-23T23:47:58.511Z,94.03
2022-12-23T23:50:25.566Z,93.52
2022-12-23T23:52:52.579Z,93.75
2022-12-23T23:55:19.587Z,94.88
2022-12-23T23:57:47.166Z,92.93
